Time;durP1;ratioP1;P1;durP2;ratioP2;P2;SDS_P1;SDS_P2;PMS_P1;PMS_P2;Temp;Humidity;BMP_temperature;BMP_pressure;BME280_temperature;BME280_humidity;BME280_pressure;Samples;Min_cycle;Max_cycle;Signal;HPM_P1;HPM_P2
2022/04/28 00:00:19;;;;;;;11.00;10.30;;;;;;;12.52;80.79;92793.59;5070375;28;20197;-81
2022/04/28 00:02:45;;;;;;;10.53;10.00;;;;;;;12.60;80.39;92795.56;5069580;28;20259;-82
2022/04/28 00:05:11;;;;;;;10.83;10.13;;;;;;;12.54;80.60;92799.34;5071775;28;20225;-82
2022/04/28 00:07:38;;;;;;;13.13;10.17;;;;;;;12.37;80.02;92767.66;5069692;28;20282;-82
2022/04/28 00:10:05;;;;;;;11.40;10.70;;;;;;;12.43;81.22;92792.69;5068901;28;20201;-81
2022/04/28 00:12:30;;;;;;;10.20;9.33;;;;;;;12.31;81.83;92779.28;5060609;28;20233;-82
2022/04/28 00:14:56;;;;;;;10.90;10.27;;;;;;;12.55;81.15;92790.41;5070688;28;20211;-81
2022/04/28 00:17:22;;;;;;;10.87;10.37;;;;;;;12.36;80.99;92766.09;5070645;28;20228;-82
2022/04/28 00:19:47;;;;;;;11.20;10.50;;;;;;;12.54;81.41;92796.72;5069977;28;20336;-82
2022/04/28 00:22:13;;;;;;;10.03;9.53;;;;;;;12.69;80.80;92801.72;5070176;28;20263;-80
2022/04/28 00:24:39;;;;;;;10.57;9.63;;;;;;;12.72;80.55;92795.91;5070565;28;20170;-81
2022/04/28 00:27:05;;;;;;;11.87;10.83;;;;;;;12.44;81.05;92768.06;5068982;28;20239;-82
2022/04/28 00:29:30;;;;;;;10.43;9.83;;;;;;;12.59;81.10;92801.88;5066440;28;20213;-83
2022/04/28 00:31:56;;;;;;;11.10;10.10;;;;;;;12.43;81.74;92800.53;5065244;28;20247;-82
2022/04/28 00:34:21;;;;;;;10.20;9.50;;;;;;;12.42;82.16;92806.84;5067850;28;20185;-82
2022/04/28 00:36:47;;;;;;;10.50;9.80;;;;;;;12.44;81.86;92805.50;5064481;28;20240;-81
2022/04/28 00:39:12;;;;;;;10.60;9.57;;;;;;;12.25;82.29;92780.41;5066209;28;20208;-82
2022/04/28 00:41:38;;;;;;;10.27;9.67;;;;;;;12.00;83.01;92778.13;5066673;28;20263;-82
2022/04/28 00:44:03;;;;;;;11.37;10.47;;;;;;;12.16;83.41;92797.78;5068864;28;20184;-82
2022/04/28 00:46:29;;;;;;;10.30;9.60;;;;;;;12.13;83.51;92793.91;5068282;28;20229;-81
2022/04/28 00:51:40;;;;;;;11.33;10.63;;;;;;;12.13;83.61;92819.28;5068350;28;20268;-82
2022/04/28 00:54:05;;;;;;;10.03;9.43;;;;;;;12.07;84.19;92817.81;5051552;28;20194;-82
2022/04/28 00:56:31;;;;;;;11.00;10.43;;;;;;;11.85;84.54;92791.41;5068878;28;20249;-81
2022/04/28 00:59:02;;;;;;;12.23;11.40;;;;;;;11.94;84.65;92816.66;5066494;28;20204;-81
2022/04/28 01:01:30;;;;;;;10.13;9.53;;;;;;;11.98;84.89;92827.34;5051641;28;20240;-81
2022/04/28 01:03:56;;;;;;;10.40;9.43;;;;;;;12.03;84.72;92824.69;5068765;28;20177;-79
2022/04/28 01:06:22;;;;;;;10.90;10.27;;;;;;;11.74;85.53;92795.19;5068296;28;20251;-82
2022/04/28 01:08:48;;;;;;;10.63;9.83;;;;;;;12.05;84.51;92809.44;5068722;28;20190;-82
2022/04/28 01:11:16;;;;;;;10.47;9.80;;;;;;;12.24;84.20;92823.34;5068287;28;20256;-81
2022/04/28 01:13:42;;;;;;;10.73;9.83;;;;;;;12.35;83.59;92827.38;5069889;28;20192;-81
2022/04/28 01:16:08;;;;;;;10.03;9.43;;;;;;;12.47;82.50;92825.09;5067110;28;20286;-81
2022/04/28 01:18:33;;;;;;;11.10;10.40;;;;;;;12.50;82.03;92814.84;5065915;28;20210;-80
2022/04/28 01:21:03;;;;;;;10.37;9.67;;;;;;;12.48;82.46;92826.66;5068777;28;20216;-82
2022/04/28 01:23:31;;;;;;;11.83;11.03;;;;;;;12.36;82.34;92808.75;5068775;28;20181;-80
2022/04/28 01:25:57;;;;;;;11.47;10.83;;;;;;;12.45;82.85;92833.22;5068762;28;20228;-83
2022/04/28 01:28:22;;;;;;;10.83;10.03;;;;;;;12.57;81.68;92815.28;5068570;28;20242;-82
2022/04/28 01:30:48;;;;;;;10.30;9.70;;;;;;;12.52;81.31;92796.22;5068367;28;20178;-81
2022/04/28 01:33:13;;;;;;;10.20;9.63;;;;;;;12.60;81.24;92798.19;5069396;28;20197;-81
2022/04/28 01:35:39;;;;;;;10.10;9.30;;;;;;;12.78;80.76;92815.72;5069205;28;20216;-81
2022/04/28 01:38:04;;;;;;;10.07;9.60;;;;;;;12.92;80.59;92837.50;5068041;28;20724;-81
2022/04/28 01:40:30;;;;;;;10.20;9.53;;;;;;;12.80;81.38;92834.53;5069777;28;20189;-82
2022/04/28 01:42:55;;;;;;;9.83;9.40;;;;;;;12.61;82.03;92821.47;5049554;28;20288;-82
2022/04/28 01:45:21;;;;;;;10.67;10.07;;;;;;;12.61;81.73;92812.84;5068086;28;20185;-82
2022/04/28 01:47:46;;;;;;;10.60;9.70;;;;;;;12.83;81.30;92837.38;5068091;28;20232;-81
2022/04/28 01:50:12;;;;;;;9.90;9.40;;;;;;;12.85;80.76;92822.16;5067899;28;20201;-82
2022/04/28 01:55:23;;;;;;;10.17;9.40;;;;;;;12.62;82.13;92843.22;5067199;28;20275;-81
2022/04/28 01:57:48;;;;;;;9.67;9.10;;;;;;;12.72;82.06;92843.06;5067306;28;20221;-80
2022/04/28 02:00:14;;;;;;;11.83;10.70;;;;;;;12.63;82.16;92844.75;5067371;28;20255;-81
2022/04/28 02:02:40;;;;;;;10.83;10.13;;;;;;;12.59;82.97;92849.03;5069294;28;20225;-80
2022/04/28 02:05:08;;;;;;;11.10;10.47;;;;;;;12.70;83.01;92845.19;5072703;28;20193;-82
2022/04/28 02:07:34;;;;;;;9.80;9.10;;;;;;;12.79;82.54;92843.47;5073133;28;20237;-81
2022/04/28 02:10:00;;;;;;;10.10;9.57;;;;;;;12.73;83.11;92844.63;5072619;28;20249;-81
2022/04/28 02:12:26;;;;;;;10.23;9.27;;;;;;;12.63;83.67;92855.25;5072660;28;20240;-81
2022/04/28 02:14:52;;;;;;;10.77;10.17;;;;;;;12.65;83.33;92853.88;5072927;28;20181;-81
2022/04/28 02:17:19;;;;;;;10.20;9.60;;;;;;;12.67;83.15;92856.22;5072412;28;20225;-81
2022/04/28 02:19:45;;;;;;;11.67;10.87;;;;;;;12.52;83.40;92844.16;5072756;28;20208;-81
2022/04/28 02:22:11;;;;;;;10.53;9.87;;;;;;;12.56;82.96;92834.66;5071765;28;20233;-82
2022/04/28 02:24:36;;;;;;;11.97;11.07;;;;;;;12.73;83.02;92855.09;5072054;28;20185;-81
2022/04/28 02:27:02;;;;;;;10.57;9.87;;;;;;;12.43;83.36;92832.75;5071624;28;20240;-81
2022/04/28 02:29:27;;;;;;;10.73;10.13;;;;;;;12.46;82.98;92828.78;5072720;28;20244;-81
2022/04/28 02:31:53;;;;;;;11.63;10.80;;;;;;;12.36;83.97;92832.31;5070950;28;20225;-81
2022/04/28 02:34:18;;;;;;;10.60;9.90;;;;;;;12.37;84.13;92851.44;5055813;28;20189;-81
2022/04/28 02:36:44;;;;;;;11.37;10.47;;;;;;;12.41;83.77;92861.06;5045218;28;20221;-82
2022/04/28 02:39:09;;;;;;;10.40;9.80;;;;;;;12.50;83.57;92874.28;5070624;28;20216;-81
2022/04/28 02:41:36;;;;;;;11.03;10.23;;;;;;;12.55;83.12;92864.53;5068890;28;20225;-82
2022/04/28 02:44:01;;;;;;;10.73;10.13;;;;;;;12.53;83.49;92866.63;5072184;28;20208;-82
2022/04/28 02:46:27;;;;;;;11.20;10.50;;;;;;;12.55;83.27;92880.25;5071463;28;20229;-82
2022/04/28 02:48:52;;;;;;;9.67;9.17;;;;;;;12.59;82.46;92864.75;5070782;28;20221;-81
2022/04/28 02:51:18;;;;;;;11.87;10.80;;;;;;;12.54;82.94;92872.66;5072096;28;20244;-81
2022/04/28 02:53:43;;;;;;;11.20;10.40;;;;;;;12.36;83.44;92876.81;5070559;28;20217;-83
2022/04/28 02:56:09;;;;;;;10.97;10.07;;;;;;;12.50;82.96;92875.06;5070431;28;20225;-80
2022/04/28 02:58:34;;;;;;;10.90;10.37;;;;;;;12.44;82.62;92863.09;5071701;28;20216;-81
2022/04/28 03:01:01;;;;;;;10.10;9.53;;;;;;;12.51;82.95;92868.00;5072539;28;20274;-81
2022/04/28 03:03:26;;;;;;;10.83;10.13;;;;;;;12.43;82.63;92861.56;5052533;28;20197;-81
2022/04/28 03:11:20;;;;;;;11.57;10.87;;;;;;;12.28;83.91;92874.06;5070169;28;20253;-81
2022/04/28 03:13:45;;;;;;;10.53;9.93;;;;;;;12.38;83.69;92879.16;5052648;28;20197;-81
2022/04/28 03:16:11;;;;;;;11.07;10.40;;;;;;;12.45;83.16;92890.09;5070995;28;20220;-82
2022/04/28 03:18:37;;;;;;;10.83;10.27;;;;;;;12.24;83.77;92886.16;5069551;28;20205;-81
2022/04/28 03:21:05;;;;;;;11.53;10.73;;;;;;;12.37;82.56;92867.16;5040208;28;20244;-81
2022/04/28 03:23:30;;;;;;;10.27;9.67;;;;;;;12.39;82.74;92894.59;5071426;28;20201;-80
2022/04/28 03:25:56;;;;;;;11.23;10.53;;;;;;;12.30;83.05;92892.88;5071190;28;20232;-81
2022/04/28 03:28:22;;;;;;;10.90;10.30;;;;;;;12.37;83.08;92898.56;5070649;28;20205;-81
2022/04/28 03:30:49;;;;;;;12.43;11.53;;;;;;;12.33;83.35;92902.78;5070689;28;20241;-81
2022/04/28 03:33:16;;;;;;;12.43;11.23;;;;;;;12.36;82.83;92910.06;5070292;28;20213;-81
2022/04/28 03:35:42;;;;;;;11.83;11.03;;;;;;;12.51;82.53;92915.13;5069849;28;20204;-80
2022/04/28 03:38:11;;;;;;;12.40;10.23;;;;;;;12.51;82.46;92909.91;5068240;28;20312;-81
2022/04/28 03:40:38;;;;;;;10.20;9.57;;;;;;;12.41;82.29;92904.78;5070771;28;20181;-80
2022/04/28 03:43:04;;;;;;;11.00;10.30;;;;;;;12.73;81.59;92928.47;5071578;28;20189;-81
2022/04/28 03:45:30;;;;;;;10.80;10.20;;;;;;;12.67;81.19;92919.09;5068587;28;20182;-82
2022/04/28 03:47:56;;;;;;;9.57;9.07;;;;;;;12.59;81.67;92930.22;5070789;28;20228;-81
2022/04/28 03:50:21;;;;;;;10.40;9.67;;;;;;;12.64;81.70;92935.38;5071532;28;20220;-81
2022/04/28 03:52:47;;;;;;;10.63;10.03;;;;;;;12.52;82.42;92942.88;5069975;28;20252;-82
2022/04/28 03:55:12;;;;;;;11.73;11.03;;;;;;;12.44;82.82;92940.88;5070630;28;20178;-75
2022/04/28 03:57:43;;;;;;;11.70;10.90;;;;;;;12.25;83.27;92930.38;5069403;28;20297;-81
2022/04/28 04:00:10;;;;;;;12.00;11.30;;;;;;;12.26;83.93;92928.53;5054270;28;20223;-81
2022/04/28 04:02:36;;;;;;;10.80;10.00;;;;;;;12.14;83.43;92888.91;5052952;28;20280;-82
2022/04/28 04:05:01;;;;;;;11.50;10.80;;;;;;;12.61;82.94;92949.81;5072764;28;20185;-86
2022/04/28 04:07:31;;;;;;;12.10;11.40;;;;;;;12.67;82.72;92945.28;5068943;28;20240;-81
2022/04/28 04:09:57;;;;;;;12.90;11.80;;;;;;;12.71;82.26;92939.22;5067818;28;21110;-85
2022/04/28 04:12:22;;;;;;;11.53;10.83;;;;;;;12.46;82.44;92923.84;5068943;28;20292;-82
2022/04/28 04:14:48;;;;;;;12.23;11.43;;;;;;;12.73;82.60;92944.19;5070412;28;20253;-87
2022/04/28 04:17:14;;;;;;;11.47;10.57;;;;;;;12.86;81.88;92939.00;5069606;28;21353;-77
2022/04/28 04:19:39;;;;;;;13.07;12.17;;;;;;;12.51;82.58;92917.75;5069561;28;20210;-82
2022/04/28 04:22:05;;;;;;;13.47;12.57;;;;;;;12.64;83.06;92932.75;5068820;28;20285;-88
2022/04/28 04:24:30;;;;;;;13.53;12.30;;;;;;;12.21;85.19;92923.38;5068918;28;20200;-79
2022/04/28 04:26:57;;;;;;;12.33;11.47;;;;;;;12.51;84.94;92946.56;5068862;28;20263;-89
2022/04/28 04:29:23;;;;;;;11.80;11.00;;;;;;;12.36;85.49;92942.28;5071202;28;20193;-84
2022/04/28 04:34:32;;;;;;;12.13;11.37;;;;;;;12.43;85.63;92952.41;5068814;28;20188;-83
2022/04/28 04:36:58;;;;;;;12.17;11.33;;;;;;;12.33;86.41;92960.38;5057948;28;20245;-82
2022/04/28 04:39:23;;;;;;;12.93;12.10;;;;;;;12.29;86.36;92941.06;5064236;28;20232;-82
2022/04/28 04:41:48;;;;;;;13.70;12.60;;;;;;;12.41;86.02;92937.00;5047231;28;20226;-83
2022/04/28 04:44:14;;;;;;;13.47;12.53;;;;;;;12.53;85.66;92955.69;5048479;28;20197;-90
2022/04/28 04:46:43;;;;;;;16.77;15.73;;;;;;;12.27;86.35;92941.34;5049185;28;20226;-80
2022/04/28 04:49:08;;;;;;;13.20;12.30;;;;;;;12.42;85.90;92958.72;5048690;28;20182;-83
2022/04/28 04:51:34;;;;;;;13.17;12.27;;;;;;;12.40;86.26;92960.84;5048625;28;20229;-81
2022/04/28 04:54:00;;;;;;;13.70;12.70;;;;;;;12.35;86.29;92960.88;5048278;28;20197;-81
2022/04/28 04:56:25;;;;;;;14.33;13.33;;;;;;;11.93;87.12;92940.69;5046653;28;20257;-79
2022/04/28 04:58:51;;;;;;;14.20;13.10;;;;;;;12.05;87.84;92966.47;5045281;28;20865;-82
2022/04/28 05:01:16;;;;;;;14.30;13.10;;;;;;;11.96;88.29;92966.31;5048970;28;20238;-78
2022/04/28 05:03:42;;;;;;;12.50;11.60;;;;;;;12.20;87.05;92971.53;5047703;28;20190;-80
2022/04/28 05:06:07;;;;;;;12.43;11.57;;;;;;;12.09;86.02;92970.09;5048998;28;20257;-92
2022/04/28 05:08:33;;;;;;;11.67;10.97;;;;;;;12.00;85.45;92971.75;5049453;28;20202;-86
2022/04/28 05:10:58;;;;;;;11.33;10.60;;;;;;;12.15;84.99;92980.25;5049016;28;20229;-83
2022/04/28 05:13:24;;;;;;;10.53;9.93;;;;;;;12.08;84.92;92989.44;5049058;28;20197;-86
2022/04/28 05:15:49;;;;;;;10.37;9.77;;;;;;;11.89;85.89;92986.75;5049668;28;20190;-84
2022/04/28 05:18:15;;;;;;;10.43;9.83;;;;;;;11.71;85.91;92976.22;5048571;28;20209;-84
2022/04/28 05:20:40;;;;;;;10.67;10.07;;;;;;;11.69;85.58;92994.03;5048451;28;20202;-86
2022/04/28 05:23:06;;;;;;;9.70;9.00;;;;;;;11.94;83.89;92989.34;5048689;28;20217;-85
2022/04/28 05:25:31;;;;;;;10.10;9.40;;;;;;;11.82;83.65;92981.09;5047967;28;20213;-85
2022/04/28 05:27:57;;;;;;;9.77;9.27;;;;;;;11.74;83.29;92991.34;5048292;28;20214;-85
2022/04/28 05:30:23;;;;;;;10.40;9.70;;;;;;;11.66;83.55;92984.91;5048979;28;20197;-85
2022/04/28 05:32:48;;;;;;;9.53;9.03;;;;;;;11.59;83.76;93000.09;5048034;28;20308;-82
2022/04/28 05:35:14;;;;;;;9.87;9.37;;;;;;;11.68;83.13;93005.53;5047691;28;20198;-77
2022/04/28 05:37:40;;;;;;;9.30;8.90;;;;;;;11.49;83.61;92997.56;5063364;28;20242;-90
2022/04/28 05:40:07;;;;;;;9.27;8.87;;;;;;;11.42;83.44;92996.31;5048877;28;20283;-82
2022/04/28 05:48:02;;;;;;;9.83;9.37;;;;;;;11.18;83.95;92981.34;5048648;28;20221;-80
2022/04/28 05:50:28;;;;;;;9.17;8.77;;;;;;;11.18;83.33;92999.63;5046842;28;20194;-80
2022/04/28 05:52:53;;;;;;;9.97;9.47;;;;;;;11.38;83.15;93002.09;5047304;28;20230;-80
2022/04/28 05:55:19;;;;;;;9.50;9.00;;;;;;;11.10;83.50;92987.16;5048251;28;20178;-79
2022/04/28 05:57:44;;;;;;;9.30;8.90;;;;;;;11.18;83.67;92999.63;5047798;28;20215;-79
2022/04/28 06:00:10;;;;;;;9.77;9.23;;;;;;;11.11;83.56;93003.63;5047018;28;20217;-80
2022/04/28 06:02:37;;;;;;;9.13;8.37;;;;;;;11.13;83.43;93017.16;5048235;28;20289;-81
2022/04/28 06:05:03;;;;;;;9.67;9.13;;;;;;;11.35;83.36;93026.19;5049107;28;20186;-79
2022/04/28 06:07:29;;;;;;;8.70;8.30;;;;;;;11.28;83.19;93032.78;5046438;28;20233;-79
2022/04/28 06:09:54;;;;;;;9.17;8.73;;;;;;;11.13;83.50;93023.19;5048237;28;20198;-80
2022/04/28 06:12:20;;;;;;;9.10;8.60;;;;;;;11.15;83.65;93020.31;5048167;28;20222;-80
2022/04/28 06:14:45;;;;;;;8.73;8.33;;;;;;;11.01;85.22;93033.19;5047870;28;20269;-79
2022/04/28 06:17:10;;;;;;;8.43;8.13;;;;;;;10.82;85.05;93024.41;5047931;28;20245;-81
2022/04/28 06:19:36;;;;;;;8.83;8.30;;;;;;;10.97;85.46;93015.72;5048233;28;20237;-80
2022/04/28 06:22:02;;;;;;;10.20;9.70;;;;;;;11.02;85.08;93026.13;5047930;28;20229;-80
2022/04/28 06:24:28;;;;;;;8.23;7.83;;;;;;;11.07;85.24;93015.66;5047953;28;20597;-83
2022/04/28 06:26:53;;;;;;;8.80;8.40;;;;;;;10.93;85.19;93031.16;5047323;28;20226;-81
2022/04/28 06:29:18;;;;;;;8.47;8.17;;;;;;;10.96;84.75;93004.47;5046634;28;20218;-81
2022/04/28 06:31:44;;;;;;;8.53;8.23;;;;;;;11.35;83.90;93035.84;5047792;28;20228;-82
2022/04/28 06:34:09;;;;;;;8.77;8.47;;;;;;;11.16;85.10;93046.16;5047923;28;20182;-81
2022/04/28 06:36:35;;;;;;;7.57;7.27;;;;;;;10.74;86.21;93021.59;5046992;28;20241;-81
2022/04/28 06:39:02;;;;;;;8.90;8.50;;;;;;;11.21;85.47;93043.53;5068089;28;20229;-78
2022/04/28 06:41:28;;;;;;;9.03;8.73;;;;;;;11.23;84.88;93040.63;5068984;28;20260;-80
2022/04/28 06:43:55;;;;;;;9.43;8.80;;;;;;;11.59;83.52;93030.69;5068934;28;20259;-82
2022/04/28 06:46:21;;;;;;;8.70;8.40;;;;;;;11.53;83.42;93034.41;5068000;28;20227;-83
2022/04/28 06:48:47;;;;;;;8.57;8.17;;;;;;;11.18;83.42;93036.22;5068909;28;20174;-80
2022/04/28 06:51:13;;;;;;;7.93;7.63;;;;;;;11.07;84.61;93042.56;5072015;28;20217;-85
2022/04/28 06:53:38;;;;;;;8.23;7.93;;;;;;;11.38;83.58;93030.06;5070408;28;20198;-82
2022/04/28 06:56:06;;;;;;;8.63;8.30;;;;;;;11.32;83.89;93039.78;5070268;28;20230;-83
2022/04/28 06:58:32;;;;;;;8.17;7.50;;;;;;;11.46;83.02;93047.00;5071427;28;20212;-81
2022/04/28 07:00:58;;;;;;;8.33;7.93;;;;;;;11.47;83.06;93051.97;5071019;28;20233;-85
2022/04/28 07:03:23;;;;;;;8.83;8.43;;;;;;;11.39;83.05;93047.34;5071705;28;20240;-83
2022/04/28 07:05:49;;;;;;;8.67;8.27;;;;;;;11.45;82.29;93037.59;5071330;28;20193;-80
2022/04/28 07:08:15;;;;;;;7.97;7.67;;;;;;;11.23;83.06;93051.88;5071772;28;20189;-93
2022/04/28 07:10:41;;;;;;;6.93;6.73;;;;;;;11.20;83.54;93052.44;5072703;28;20196;-91
2022/04/28 07:13:09;;;;;;;7.57;7.33;;;;;;;11.04;84.59;93064.00;5073020;28;20226;-90
2022/04/28 07:15:38;;;;;;;8.60;8.20;;;;;;;11.32;84.09;93050.25;5070086;28;20189;-94
2022/04/28 07:18:04;;;;;;;9.60;9.00;;;;;;;11.55;82.18;93058.47;5073599;28;20183;-89
2022/04/28 07:20:31;;;;;;;8.10;7.80;;;;;;;11.41;82.77;93062.75;5055982;28;20220;-85
2022/04/28 07:22:59;;;;;;;8.33;8.00;;;;;;;11.53;81.69;93052.72;5073497;28;20237;-81
2022/04/28 07:25:25;;;;;;;8.30;8.00;;;;;;;11.66;81.68;93059.97;5071698;28;20194;-82
2022/04/28 07:27:51;;;;;;;8.03;7.73;;;;;;;11.29;83.58;93057.84;5071117;28;20245;-79
2022/04/28 07:30:18;;;;;;;9.20;8.83;;;;;;;11.70;81.92;93060.97;5070704;28;20186;-80
2022/04/28 07:32:43;;;;;;;8.20;7.90;;;;;;;11.41;84.17;93067.97;5070883;28;20233;-80
2022/04/28 07:35:09;;;;;;;9.17;8.87;;;;;;;11.45;83.25;93063.75;5071085;28;20220;-79
2022/04/28 07:37:34;;;;;;;8.30;8.00;;;;;;;11.45;83.64;93066.38;5070194;28;20340;-82
2022/04/28 07:40:00;;;;;;;8.10;7.80;;;;;;;11.33;84.05;93066.72;5072522;28;20273;-82
2022/04/28 07:42:25;;;;;;;7.30;7.10;;;;;;;11.65;82.86;93068.88;5071239;28;20225;-80
2022/04/28 07:44:50;;;;;;;8.43;8.13;;;;;;;11.64;82.14;93072.53;5071039;28;20185;-80
2022/04/28 07:47:17;;;;;;;8.63;8.20;;;;;;;11.66;81.75;93075.66;5071148;28;20223;-79
2022/04/28 07:49:42;;;;;;;8.77;8.47;;;;;;;11.38;83.86;93075.28;5069317;28;20189;-81
2022/04/28 07:52:07;;;;;;;8.33;7.93;;;;;;;11.55;83.67;93068.91;5065962;28;20222;-81
2022/04/28 07:54:33;;;;;;;9.13;8.83;;;;;;;11.63;83.68;93078.81;5066511;28;20284;-82
2022/04/28 07:56:58;;;;;;;9.07;8.77;;;;;;;11.80;81.60;93076.59;5070391;28;20251;-81
2022/04/28 07:59:24;;;;;;;8.03;7.73;;;;;;;11.94;81.71;93093.25;5070098;28;20212;-83
2022/04/28 08:01:49;;;;;;;9.73;9.33;;;;;;;11.81;81.20;93083.41;5069262;28;20234;-83
2022/04/28 08:04:15;;;;;;;8.97;8.67;;;;;;;11.59;81.84;93051.63;5069964;28;20182;-84
2022/04/28 08:06:40;;;;;;;8.17;7.87;;;;;;;12.01;80.89;93081.41;5069610;28;20236;-84
2022/04/28 08:09:06;;;;;;;7.80;7.57;;;;;;;12.60;79.31;93083.69;5040756;28;20170;-84
2022/04/28 08:11:31;;;;;;;8.70;8.40;;;;;;;12.45;78.03;93074.13;5069454;28;20226;-84
2022/04/28 08:13:56;;;;;;;8.77;8.47;;;;;;;11.94;80.91;93093.25;5052452;28;20245;-79
2022/04/28 08:16:22;;;;;;;8.50;8.20;;;;;;;11.59;83.18;93083.00;5067581;28;20220;-81
2022/04/28 08:18:47;;;;;;;8.77;8.47;;;;;;;11.62;81.97;93079.84;5070064;28;20201;-80
2022/04/28 08:21:13;;;;;;;8.20;7.90;;;;;;;11.70;82.10;93100.22;5069572;28;20217;-82
2022/04/28 08:23:38;;;;;;;8.73;8.43;;;;;;;12.07;81.26;93093.38;5069989;28;20183;-81
2022/04/28 08:26:04;;;;;;;9.70;9.30;;;;;;;11.99;81.62;93095.78;5068453;28;20254;-82
2022/04/28 08:28:30;;;;;;;8.37;8.03;;;;;;;11.65;82.25;93090.56;5069695;28;20191;-81
2022/04/28 08:30:55;;;;;;;8.13;7.83;;;;;;;11.77;82.49;93104.06;5069730;28;20213;-81
2022/04/28 08:33:21;;;;;;;9.23;8.93;;;;;;;11.91;81.13;93091.94;5067845;28;20244;-85
2022/04/28 08:35:46;;;;;;;7.93;7.63;;;;;;;11.52;82.96;93106.06;5069096;28;20173;-84
2022/04/28 08:38:11;;;;;;;8.83;8.37;;;;;;;11.60;82.50;93100.25;5068741;28;20223;-82
2022/04/28 08:40:37;;;;;;;8.40;8.10;;;;;;;11.68;83.34;93104.94;5068777;28;20196;-81
2022/04/28 08:43:04;;;;;;;7.77;7.47;;;;;;;11.76;82.84;93105.13;5068848;28;20212;-80
2022/04/28 08:45:38;;;;;;;8.43;8.03;;;;;;;11.79;82.47;93106.41;5068688;28;20191;-82
2022/04/28 08:48:05;;;;;;;8.57;8.17;;;;;;;11.64;83.22;93109.16;5069011;28;20218;-82
2022/04/28 08:50:32;;;;;;;8.80;8.40;;;;;;;11.53;85.23;93102.41;5067962;28;20200;-81
2022/04/28 08:52:59;;;;;;;8.20;7.93;;;;;;;11.71;82.89;93109.59;5067225;28;20921;-80
2022/04/28 08:55:24;;;;;;;8.50;8.17;;;;;;;11.72;83.66;93113.81;5069192;28;20200;-81
2022/04/28 08:57:50;;;;;;;9.33;8.63;;;;;;;11.65;83.74;93106.25;5068314;28;20225;-81
2022/04/28 09:00:17;;;;;;;11.20;10.60;;;;;;;11.49;84.14;93099.53;5064857;28;20221;-85
2022/04/28 09:02:42;;;;;;;8.53;8.13;;;;;;;11.66;84.28;93109.66;5050800;28;20226;-83
2022/04/28 09:05:10;;;;;;;9.90;9.37;;;;;;;12.04;82.39;93114.88;5069077;28;20197;-83
2022/04/28 09:07:40;;;;;;;9.40;9.00;;;;;;;11.72;84.69;93116.44;5067121;28;20244;-82
2022/04/28 09:10:29;;;;;;;8.70;8.20;;;;;;;12.00;82.82;93118.31;5068312;28;20195;-83
2022/04/28 09:14:09;;;;;;;8.00;7.70;;;;;;;12.27;80.58;93102.88;5065379;28;20237;-83
2022/04/28 09:15:50;;;;;;;8.70;8.40;;;;;;;11.56;84.03;93102.63;5067959;28;20186;-83
2022/04/28 09:18:16;;;;;;;8.53;8.23;;;;;;;12.15;83.21;93112.94;5069261;28;20265;-81
2022/04/28 09:20:43;;;;;;;9.00;8.63;;;;;;;12.35;81.64;93115.38;5044730;28;20204;-82
2022/04/28 09:23:10;;;;;;;8.13;7.83;;;;;;;12.31;81.16;93111.75;5067887;28;20906;-86
2022/04/28 09:25:35;;;;;;;9.00;8.70;;;;;;;12.26;81.93;93124.88;5066912;28;20240;-86
2022/04/28 09:28:02;;;;;;;8.90;8.47;;;;;;;12.46;80.42;93124.69;5068056;28;20169;-83
2022/04/28 09:30:42;;;;;;;9.20;8.80;;;;;;;12.20;82.28;93123.38;5067966;28;20191;-85
2022/04/28 09:33:09;;;;;;;8.90;8.50;;;;;;;12.43;81.22;93120.78;5066035;28;20206;-85
2022/04/28 09:35:34;;;;;;;8.83;8.53;;;;;;;12.57;79.95;93110.44;5065757;28;20185;-82
2022/04/28 09:38:00;;;;;;;9.10;8.80;;;;;;;11.90;82.68;93126.22;5070634;28;20237;-82
2022/04/28 09:43:09;;;;;;;8.90;8.40;;;;;;;12.48;80.93;93125.19;5067730;28;20220;-84
2022/04/28 09:45:38;;;;;;;9.63;9.23;;;;;;;12.31;81.62;93124.84;5066753;28;20195;-81
2022/04/28 09:48:05;;;;;;;8.87;8.37;;;;;;;12.23;81.89;93118.34;5068904;28;20193;-80
2022/04/28 09:50:34;;;;;;;10.27;9.57;;;;;;;12.65;80.58;93105.34;5065735;28;20197;-79
2022/04/28 09:53:03;;;;;;;9.20;8.80;;;;;;;12.26;80.89;93109.97;5067405;28;20247;-83
2022/04/28 09:55:30;;;;;;;10.37;9.77;;;;;;;12.54;80.19;93124.09;5065650;28;20201;-80
2022/04/28 09:57:56;;;;;;;10.17;9.67;;;;;;;12.13;82.57;93121.06;5068460;28;20294;-79
2022/04/28 10:00:21;;;;;;;8.03;7.73;;;;;;;12.62;80.73;93126.09;5065258;28;20228;-82
2022/04/28 10:02:48;;;;;;;9.23;8.63;;;;;;;12.71;79.12;93119.19;5066770;28;20217;-80
2022/04/28 10:05:14;;;;;;;10.33;9.83;;;;;;;12.35;82.35;93126.63;5051027;28;20186;-81
2022/04/28 10:07:41;;;;;;;8.53;8.13;;;;;;;12.66;79.88;93127.09;5066401;28;20259;-84
2022/04/28 10:10:07;;;;;;;10.63;9.93;;;;;;;13.03;77.51;93122.00;5070093;28;20236;-81
2022/04/28 10:12:33;;;;;;;10.93;10.10;;;;;;;13.50;75.52;93124.53;5066866;28;20232;-80
2022/04/28 10:15:00;;;;;;;10.43;9.63;;;;;;;13.14;75.91;93117.41;5067988;28;20221;-78
2022/04/28 10:17:44;;;;;;;9.73;9.20;;;;;;;13.01;78.25;93123.34;5050752;28;20244;-81
2022/04/28 10:20:32;;;;;;;10.33;9.73;;;;;;;12.92;78.67;93120.50;5068272;28;20221;-80
2022/04/28 10:23:02;;;;;;;10.83;10.03;;;;;;;13.25;77.10;93111.75;5065331;28;20198;-79
2022/04/28 10:34:13;;;;;;;10.70;10.03;;;;;;;12.31;77.66;93073.25;5072128;28;20196;-82
2022/04/28 10:36:58;;;;;;;11.47;10.10;;;;;;;12.94;77.01;93110.53;5068950;28;20256;-85
2022/04/28 10:39:41;;;;;;;10.20;9.53;;;;;;;13.67;73.23;93097.78;5071477;28;20221;-83
2022/04/28 10:42:20;;;;;;;12.17;9.67;;;;;;;13.62;74.18;93114.41;5070652;28;20241;-82
2022/04/28 10:44:54;;;;;;;10.40;9.83;;;;;;;13.44;74.29;93111.78;5071922;28;20739;-81
2022/04/28 10:47:34;;;;;;;9.50;9.00;;;;;;;14.15;72.69;93118.31;5070507;28;20228;-85
2022/04/28 10:49:59;;;;;;;9.40;8.90;;;;;;;14.13;71.52;93109.94;5071168;28;20211;-82
2022/04/28 10:52:26;;;;;;;10.20;9.63;;;;;;;13.80;71.86;93100.50;5071077;28;20221;-83
2022/04/28 10:54:53;;;;;;;8.83;8.43;;;;;;;13.95;71.84;93113.38;5072624;28;20186;-83
2022/04/28 10:57:31;;;;;;;8.90;8.50;;;;;;;13.43;73.18;93102.34;5068781;28;20225;-83
2022/04/28 10:59:56;;;;;;;11.13;10.30;;;;;;;12.97;78.04;93091.63;5070786;28;20243;-83
2022/04/28 11:02:23;;;;;;;11.30;10.77;;;;;;;13.00;76.02;93112.06;5071328;28;20969;-82
2022/04/28 11:04:52;;;;;;;10.50;9.80;;;;;;;13.06;76.23;93104.94;5071502;28;20177;-85
2022/04/28 11:07:24;;;;;;;9.83;9.23;;;;;;;13.69;73.19;93096.47;5069607;28;20221;-87
2022/04/28 11:10:13;;;;;;;10.37;9.63;;;;;;;13.12;76.08;93098.56;5070691;28;20213;-83
2022/04/28 11:12:41;;;;;;;8.93;8.43;;;;;;;13.61;74.43;93091.06;5069722;28;20236;-84
2022/04/28 11:15:10;;;;;;;9.27;8.83;;;;;;;13.14;75.13;93097.22;5072029;28;20189;-83
2022/04/28 11:17:38;;;;;;;9.03;8.63;;;;;;;13.54;73.58;93104.53;5069571;28;20213;-83
2022/04/28 11:20:11;;;;;;;9.50;9.00;;;;;;;13.15;76.94;93108.50;5069819;28;20650;-84
2022/04/28 11:22:41;;;;;;;9.57;8.97;;;;;;;13.61;73.87;93102.34;5069828;28;20251;-84
2022/04/28 11:25:12;;;;;;;10.13;9.53;;;;;;;13.80;72.21;93107.59;5068982;28;20181;-80
2022/04/28 11:27:38;;;;;;;12.90;9.30;;;;;;;13.29;74.21;93110.13;5068765;28;20224;-80
2022/04/28 11:30:05;;;;;;;10.90;10.10;;;;;;;13.93;72.75;93112.88;5071096;28;20234;-79
2022/04/28 11:32:30;;;;;;;10.03;9.43;;;;;;;14.45;70.27;93093.41;5069950;28;20225;-86
2022/04/28 11:34:56;;;;;;;9.57;8.97;;;;;;;14.63;68.34;93092.53;5070411;28;20189;-87
2022/04/28 11:37:25;;;;;;;9.93;9.33;;;;;;;14.68;69.18;93115.34;5068744;28;20305;-85
2022/04/28 11:39:55;;;;;;;9.37;8.87;;;;;;;14.97;67.71;93114.00;5052580;28;20296;-86
2022/04/28 11:42:22;;;;;;;9.40;8.80;;;;;;;14.35;68.06;93070.72;5070262;28;20229;-84
2022/04/28 11:44:52;;;;;;;10.00;9.30;;;;;;;14.71;69.09;93110.28;5070996;28;20190;-84
2022/04/28 11:47:23;;;;;;;10.63;10.03;;;;;;;15.20;67.15;93096.44;5068942;28;20221;-87
2022/04/28 11:49:51;;;;;;;9.67;8.87;;;;;;;14.42;69.46;93094.78;5070724;28;20211;-85
2022/04/28 11:52:25;;;;;;;9.83;9.10;;;;;;;14.37;69.59;93105.38;5069151;28;20282;-86
2022/04/28 11:55:03;;;;;;;10.10;9.40;;;;;;;13.65;71.40;93103.31;5070474;28;20204;-82